Time;durP1;ratioP1;P1;durP2;ratioP2;P2;SDS_P1;SDS_P2;PMS_P1;PMS_P2;Temp;Humidity;BMP_temperature;BMP_pressure;BME280_temperature;BME280_humidity;BME280_pressure;Samples;Min_cycle;Max_cycle;Signal;HPM_P1;HPM_P2
2022/06/11 00:00:49;;;;;;;6.53;4.23;;;18.80;1.00;;;;;;5019813;28;20492;-62
2022/06/11 00:03:17;;;;;;;6.30;4.20;;;18.80;1.00;;;;;;5020205;28;20460;-63
2022/06/11 00:05:44;;;;;;;3.90;3.50;;;18.80;1.00;;;;;;5019296;28;20467;-62
2022/06/11 00:08:13;;;;;;;8.80;3.80;;;18.80;1.00;;;;;;5019219;28;20491;-62
2022/06/11 00:10:41;;;;;;;5.40;3.40;;;18.80;1.00;;;;;;5026126;28;20908;-62
2022/06/11 00:13:08;;;;;;;5.17;3.93;;;18.80;1.00;;;;;;5039967;28;20732;-62
2022/06/11 00:15:37;;;;;;;6.00;4.47;;;18.80;1.00;;;;;;5029249;28;20542;-62
2022/06/11 00:18:05;;;;;;;4.60;4.20;;;18.80;1.00;;;;;;5020011;28;20472;-62
2022/06/11 00:20:32;;;;;;;7.83;4.10;;;18.80;1.00;;;;;;5019169;28;20468;-62
2022/06/11 00:23:00;;;;;;;6.10;4.17;;;18.90;1.00;;;;;;5019896;28;20542;-62
2022/06/11 00:25:31;;;;;;;8.80;4.03;;;18.80;1.00;;;;;;5019560;28;20540;-62
2022/06/11 00:27:58;;;;;;;6.50;4.47;;;18.90;1.00;;;;;;5019244;28;20526;-62
2022/06/11 00:30:25;;;;;;;6.10;4.27;;;18.80;1.00;;;;;;5019528;28;20491;-63
2022/06/11 00:32:55;;;;;;;7.10;3.73;;;18.80;1.00;;;;;;5019641;28;20472;-63
2022/06/11 00:35:25;;;;;;;7.70;4.13;;;18.80;1.00;;;;;;5019081;28;20492;-62
2022/06/11 00:37:52;;;;;;;4.90;4.00;;;18.80;1.00;;;;;;5018873;28;20464;-63
2022/06/11 00:40:26;;;;;;;7.73;4.70;;;18.80;1.00;;;;;;5018969;28;20530;-63
2022/06/11 00:42:54;;;;;;;6.37;3.50;;;18.70;1.00;;;;;;5019814;28;20808;-62
2022/06/11 00:45:32;;;;;;;6.70;3.77;;;18.80;1.00;;;;;;5019553;28;20935;-63
2022/06/11 00:48:04;;;;;;;4.60;4.00;;;18.70;1.00;;;;;;5017423;28;20498;-62
2022/06/11 00:50:39;;;;;;;6.03;3.47;;;18.70;1.00;;;;;;5018923;28;20468;-62
2022/06/11 00:53:13;;;;;;;10.37;4.50;;;18.70;1.00;;;;;;5019678;28;20463;-62
2022/06/11 00:55:45;;;;;;;6.17;4.30;;;18.70;1.00;;;;;;5018398;28;20540;-62
2022/06/11 00:58:21;;;;;;;4.23;3.83;;;18.70;1.00;;;;;;5017637;28;20831;-63
2022/06/11 01:00:52;;;;;;;8.27;4.60;;;18.60;1.00;;;;;;5019029;28;20474;-62
2022/06/11 01:03:24;;;;;;;6.23;4.00;;;18.60;1.00;;;;;;5018863;28;20474;-62
2022/06/11 01:05:59;;;;;;;6.30;3.90;;;18.70;1.00;;;;;;5019117;28;20823;-62
2022/06/11 01:08:37;;;;;;;8.93;4.10;;;18.60;1.00;;;;;;5018502;28;20491;-62
2022/06/11 01:11:29;;;;;;;4.73;4.27;;;18.60;1.00;;;;;;5018963;28;20460;-62
2022/06/11 01:14:13;;;;;;;6.67;4.33;;;18.50;1.00;;;;;;5018482;28;20829;-62
2022/06/11 01:16:46;;;;;;;5.37;3.40;;;18.50;1.00;;;;;;5018659;28;20526;-62
2022/06/11 01:19:42;;;;;;;5.27;4.33;;;18.60;1.00;;;;;;5018426;28;20893;-62
2022/06/11 01:22:29;;;;;;;5.73;4.23;;;18.50;1.00;;;;;;5018939;28;20894;-62
2022/06/11 01:25:02;;;;;;;6.17;4.27;;;18.60;1.00;;;;;;5018043;28;20766;-63
2022/06/11 01:27:55;;;;;;;6.93;4.13;;;18.50;1.00;;;;;;5019009;28;20911;-62
2022/06/11 01:30:27;;;;;;;5.80;4.13;;;18.50;1.00;;;;;;5011352;28;20774;-62
2022/06/11 01:33:09;;;;;;;5.30;4.13;;;18.50;1.00;;;;;;5018549;28;20467;-62
2022/06/11 01:35:57;;;;;;;7.60;4.10;;;18.50;1.00;;;;;;5017289;28;20458;-62
2022/06/11 01:38:30;;;;;;;6.03;4.53;;;18.60;1.00;;;;;;5018278;28;20467;-63
2022/06/11 01:41:15;;;;;;;4.60;4.03;;;18.50;1.00;;;;;;5018308;28;20468;-62
2022/06/11 01:43:45;;;;;;;8.80;4.40;;;18.50;1.00;;;;;;5018014;28;20495;-62
2022/06/11 01:46:20;;;;;;;5.20;4.47;;;18.50;1.00;;;;;;5016989;28;20518;-62
2022/06/11 01:48:53;;;;;;;7.37;4.20;;;18.50;1.00;;;;;;5018529;28;20502;-62
2022/06/11 01:51:31;;;;;;;4.50;4.10;;;18.50;1.00;;;;;;5017732;28;20527;-62
2022/06/11 01:54:22;;;;;;;5.67;4.23;;;18.50;1.00;;;;;;5018521;28;20459;-62
2022/06/11 01:57:20;;;;;;;5.60;4.07;;;18.50;1.00;;;;;;5016876;28;20464;-62
2022/06/11 02:00:02;;;;;;;7.40;4.07;;;18.40;1.00;;;;;;5016879;28;20558;-62
2022/06/11 02:02:43;;;;;;;5.50;4.53;;;18.40;1.00;;;;;;5018014;28;20777;-62
2022/06/11 02:05:22;;;;;;;7.50;4.47;;;18.30;1.00;;;;;;5018074;28;20464;-62
2022/06/11 02:08:03;;;;;;;10.57;4.27;;;18.30;1.00;;;;;;5017061;28;20499;-62
2022/06/11 02:10:36;;;;;;;6.20;4.20;;;18.30;1.00;;;;;;5017883;28;20506;-62
2022/06/11 02:13:09;;;;;;;6.30;4.10;;;18.30;1.00;;;;;;5017926;28;20472;-63
2022/06/11 02:15:43;;;;;;;4.17;3.63;;;18.30;1.00;;;;;;5017624;28;20901;-63
2022/06/11 02:18:17;;;;;;;9.50;4.00;;;18.30;1.00;;;;;;5016347;28;20456;-63
2022/06/11 02:20:50;;;;;;;6.83;4.07;;;18.30;1.00;;;;;;5017462;28;20864;-63
2022/06/11 02:23:24;;;;;;;4.50;4.10;;;18.30;1.00;;;;;;5018088;28;20438;-63
2022/06/11 02:25:54;;;;;;;7.70;4.23;;;18.30;1.00;;;;;;5017524;28;20468;-62
2022/06/11 02:28:28;;;;;;;5.03;3.87;;;18.40;1.00;;;;;;5017398;28;20470;-62
2022/06/11 02:31:02;;;;;;;5.50;4.53;;;18.30;1.00;;;;;;5017295;28;20555;-62
2022/06/11 02:33:32;;;;;;;6.73;4.03;;;18.30;1.00;;;;;;5017750;28;20905;-63
2022/06/11 02:36:02;;;;;;;8.30;4.30;;;18.20;1.00;;;;;;5017067;28;20487;-62
2022/06/11 02:38:32;;;;;;;6.10;4.20;;;18.20;1.00;;;;;;5017549;28;20518;-62
2022/06/11 02:41:02;;;;;;;5.03;4.27;;;18.20;1.00;;;;;;5016818;28;20471;-62
2022/06/11 02:43:30;;;;;;;8.20;4.80;;;18.20;1.00;;;;;;5017839;28;20567;-62
2022/06/11 02:45:57;;;;;;;8.53;4.83;;;18.20;1.00;;;;;;5016899;28;20468;-63
2022/06/11 02:48:25;;;;;;;7.00;5.00;;;18.10;1.00;;;;;;5017294;28;20930;-62
2022/06/11 02:50:54;;;;;;;5.00;4.30;;;18.10;1.00;;;;;;5016708;28;20486;-63
2022/06/11 02:53:21;;;;;;;5.93;4.40;;;18.10;1.00;;;;;;5017392;28;20507;-63
2022/06/11 02:55:48;;;;;;;7.13;4.30;;;18.00;1.00;;;;;;5016516;28;20474;-62
2022/06/11 02:58:16;;;;;;;8.40;4.00;;;18.10;1.00;;;;;;5017349;28;20470;-63
2022/06/11 03:00:46;;;;;;;9.20;5.10;;;18.10;1.00;;;;;;5016924;28;20823;-63
2022/06/11 03:03:13;;;;;;;6.87;4.60;;;18.10;1.00;;;;;;5017626;28;20465;-62
2022/06/11 03:05:41;;;;;;;8.97;4.90;;;18.10;1.00;;;;;;5016319;28;20474;-63
2022/06/11 03:08:10;;;;;;;8.20;5.27;;;18.10;1.00;;;;;;5016576;28;20499;-62
2022/06/11 03:10:38;;;;;;;6.37;4.40;;;18.10;1.00;;;;;;5015929;28;20456;-63
2022/06/11 03:13:06;;;;;;;6.07;4.10;;;18.10;1.00;;;;;;5019649;28;20430;-63
2022/06/11 03:15:34;;;;;;;5.83;4.30;;;18.00;1.00;;;;;;5021129;28;20468;-63
2022/06/11 03:18:01;;;;;;;11.10;4.50;;;18.10;1.00;;;;;;5020478;28;20793;-63
2022/06/11 03:20:31;;;;;;;5.47;4.00;;;18.00;1.00;;;;;;5020815;28;20472;-63
2022/06/11 03:22:58;;;;;;;6.10;4.97;;;18.10;1.00;;;;;;5021452;28;20470;-63
2022/06/11 03:25:27;;;;;;;6.90;4.30;;;18.10;1.00;;;;;;5020938;28;20471;-63
2022/06/11 03:27:54;;;;;;;6.10;4.10;;;18.10;1.00;;;;;;5019758;28;20822;-63
2022/06/11 03:30:22;;;;;;;5.83;4.33;;;18.10;1.00;;;;;;5020636;28;20468;-63
2022/06/11 03:32:49;;;;;;;7.50;4.00;;;18.00;1.00;;;;;;5020560;28;20471;-63
2022/06/11 03:35:17;;;;;;;7.77;4.90;;;17.90;1.00;;;;;;5020421;28;20487;-63
2022/06/11 03:37:44;;;;;;;6.47;4.50;;;17.80;1.00;;;;;;5019488;28;20463;-63
2022/06/11 03:40:15;;;;;;;6.13;3.93;;;17.60;1.00;;;;;;5020243;28;20436;-63
2022/06/11 03:42:44;;;;;;;7.80;4.50;;;17.60;1.00;;;;;;5020145;28;20558;-63
2022/06/11 03:45:12;;;;;;;5.80;4.77;;;17.60;1.00;;;;;;5020585;28;20780;-63
2022/06/11 03:47:40;;;;;;;6.87;4.63;;;17.50;1.00;;;;;;5019862;28;20468;-63
2022/06/11 03:50:11;;;;;;;6.97;4.70;;;17.50;1.00;;;;;;5020590;28;20470;-63
2022/06/11 03:52:38;;;;;;;7.67;4.40;;;17.30;38.30;;;;;;5020306;28;20522;-63
2022/06/11 03:55:06;;;;;;;6.63;5.20;;;17.30;61.90;;;;;;5020523;28;20519;-63
2022/06/11 03:57:34;;;;;;;6.00;5.00;;;17.30;54.80;;;;;;5019767;28;20439;-63
2022/06/11 04:01:14;;;;;;;5.77;5.17;;;17.20;78.20;;;;;;5019040;28;20499;-63
2022/06/11 04:03:05;;;;;;;7.67;5.00;;;17.10;99.90;;;;;;5019378;28;20518;-63
2022/06/11 04:05:32;;;;;;;9.07;5.73;;;17.00;99.90;;;;;;5020321;28;20900;-63
2022/06/11 04:07:59;;;;;;;6.57;5.93;;;17.00;99.90;;;;;;5019513;28;20466;-63
2022/06/11 04:10:28;;;;;;;8.20;5.23;;;16.90;99.90;;;;;;5018687;28;20470;-63
2022/06/11 04:12:58;;;;;;;8.83;6.13;;;16.90;99.90;;;;;;5019596;28;20951;-63
2022/06/11 04:15:27;;;;;;;7.27;4.63;;;16.80;99.90;;;;;;5019787;28;20889;-63
2022/06/11 04:17:54;;;;;;;6.30;5.33;;;16.80;99.90;;;;;;5019414;28;20883;-63
2022/06/11 04:20:22;;;;;;;5.77;5.27;;;16.80;99.90;;;;;;5018503;28;20468;-63
2022/06/11 04:22:51;;;;;;;6.63;5.10;;;16.80;99.90;;;;;;5018852;28;20814;-63
2022/06/11 04:25:21;;;;;;;9.50;6.03;;;16.70;1.00;;;;;;5019097;28;20468;-63
2022/06/11 04:27:53;;;;;;;6.37;4.90;;;16.70;1.00;;;;;;5019041;28;20944;-63
2022/06/11 04:30:22;;;;;;;5.93;5.00;;;16.80;1.00;;;;;;5018876;28;20460;-63
2022/06/11 04:32:50;;;;;;;5.20;4.70;;;16.80;1.00;;;;;;5019399;28;20443;-63
2022/06/11 04:35:17;;;;;;;11.40;5.83;;;16.80;17.80;;;;;;5019054;28;20484;-63
2022/06/11 04:37:46;;;;;;;7.47;5.03;;;16.80;99.90;;;;;;5019058;28;20470;-63
2022/06/11 04:40:16;;;;;;;7.43;4.73;;;16.80;99.90;;;;;;5019363;28;20948;-63
2022/06/11 04:42:43;;;;;;;8.40;5.10;;;16.80;99.90;;;;;;5019055;28;20538;-62
2022/06/11 04:45:16;;;;;;;6.57;5.30;;;16.80;99.90;;;;;;5019292;28;20504;-63
2022/06/11 04:47:47;;;;;;;6.60;4.87;;;16.80;99.90;;;;;;5019057;28;20472;-62
2022/06/11 04:50:21;;;;;;;8.50;5.20;;;16.90;99.90;;;;;;5019420;28;20729;-63
2022/06/11 04:52:50;;;;;;;9.67;5.50;;;16.90;76.50;;;;;;5018589;28;20904;-62
2022/06/11 04:55:17;;;;;;;6.13;5.30;;;16.90;99.90;;;;;;5018690;28;20439;-62
2022/06/11 04:57:45;;;;;;;10.40;6.10;;;17.00;43.80;;;;;;5018280;28;20469;-63
2022/06/11 05:00:23;;;;;;;6.27;5.63;;;17.00;1.00;;;;;;5018034;28;20517;-63
2022/06/11 05:02:50;;;;;;;6.80;5.20;;;17.10;1.00;;;;;;5018090;28;20822;-63
2022/06/11 05:05:19;;;;;;;6.90;5.20;;;17.20;1.00;;;;;;5018945;28;20611;-63
2022/06/11 05:07:47;;;;;;;8.53;4.60;;;17.20;1.00;;;;;;5018187;28;20778;-62
2022/06/11 05:10:18;;;;;;;8.90;5.03;;;17.30;1.00;;;;;;5019016;28;20495;-63
2022/06/11 05:12:45;;;;;;;7.53;4.90;;;17.40;1.00;;;;;;5016997;28;20792;-63
2022/06/11 05:15:13;;;;;;;8.43;5.60;;;17.50;99.90;;;;;;5017352;28;20472;-63
2022/06/11 05:17:40;;;;;;;7.03;5.57;;;17.70;99.90;;;;;;5015871;28;20511;-63
2022/06/11 05:20:09;;;;;;;4.97;4.13;;;17.90;99.90;;;;;;5017987;28;20782;-63
2022/06/11 05:22:40;;;;;;;6.07;4.17;;;18.20;99.90;;;;;;5018092;28;20498;-63
2022/06/11 05:25:12;;;;;;;6.23;4.60;;;18.50;23.60;;;;;;5018547;28;20464;-63
2022/06/11 05:27:42;;;;;;;6.03;5.00;;;18.70;1.00;;;;;;5017800;28;20464;-63
2022/06/11 05:30:15;;;;;;;5.10;3.90;;;18.90;1.00;;;;;;5018444;28;20518;-63
2022/06/11 05:32:46;;;;;;;13.97;4.70;;;19.10;1.00;;;;;;5018082;28;20464;-63
2022/06/11 05:35:17;;;;;;;10.77;4.40;;;19.30;1.00;;;;;;5014872;28;20499;-63
2022/06/11 05:37:47;;;;;;;6.17;3.57;;;19.30;1.00;;;;;;5017931;28;20937;-63
2022/06/11 05:40:17;;;;;;;5.43;3.67;;;19.40;1.00;;;;;;5017669;28;20460;-62
2022/06/11 05:42:47;;;;;;;3.70;3.23;;;19.60;1.00;;;;;;5018523;28;20438;-62
2022/06/11 05:45:16;;;;;;;4.07;3.20;;;19.50;1.00;;;;;;5016775;28;20474;-61
2022/06/11 05:47:46;;;;;;;4.40;3.03;;;19.60;1.00;;;;;;5017744;28;20526;-62
2022/06/11 05:50:17;;;;;;;6.17;3.10;;;19.60;1.00;;;;;;5016824;28;20471;-62
2022/06/11 05:52:46;;;;;;;4.90;3.43;;;19.70;1.00;;;;;;5016408;28;20486;-62
2022/06/11 05:55:16;;;;;;;5.33;3.30;;;19.90;1.00;;;;;;5014322;28;20476;-62
2022/06/11 05:57:46;;;;;;;3.90;3.23;;;20.00;1.00;;;;;;5013623;28;20483;-62
2022/06/11 06:00:16;;;;;;;3.50;2.60;;;20.00;1.00;;;;;;5015026;28;20531;-62
2022/06/11 06:02:44;;;;;;;3.77;3.27;;;20.10;1.00;;;;;;5016408;28;20460;-62
2022/06/11 06:05:14;;;;;;;3.83;2.93;;;20.20;1.00;;;;;;5015301;28;20566;-62
2022/06/11 06:07:41;;;;;;;4.73;3.30;;;20.10;1.00;;;;;;5015861;28;20471;-62
2022/06/11 06:10:12;;;;;;;4.63;3.20;;;20.20;1.00;;;;;;5015311;28;20499;-62
2022/06/11 06:12:41;;;;;;;5.30;3.37;;;20.20;1.00;;;;;;5015551;28;20471;-63
2022/06/11 06:15:12;;;;;;;3.60;3.30;;;20.60;99.90;;;;;;5016952;28;20468;-61
2022/06/11 06:17:42;;;;;;;6.20;3.93;;;20.90;99.90;;;;;;5017335;28;20464;-61
2022/06/11 06:20:14;;;;;;;4.30;2.93;;;20.90;99.90;;;;;;5017079;28;20464;-62
2022/06/11 06:22:44;;;;;;;4.27;3.20;;;21.10;99.90;;;;;;5015133;28;20468;-62
2022/06/11 06:25:17;;;;;;;5.37;3.67;;;21.00;99.90;;;;;;5016982;28;20464;-61
2022/06/11 06:27:44;;;;;;;4.07;3.53;;;20.60;99.90;;;;;;5017332;28;20507;-62
2022/06/11 06:30:15;;;;;;;7.33;2.70;;;20.50;99.90;;;;;;5017311;28;20503;-62
2022/06/11 06:32:43;;;;;;;4.13;3.73;;;20.60;99.90;;;;;;5016870;28;20772;-62
2022/06/11 06:35:10;;;;;;;4.13;2.97;;;20.60;99.90;;;;;;5015559;28;20940;-62
2022/06/11 06:37:37;;;;;;;3.10;2.70;;;20.60;99.90;;;;;;5014460;28;20468;-62
2022/06/11 06:40:06;;;;;;;4.50;3.00;;;20.30;99.90;;;;;;5014357;28;20472;-62
2022/06/11 06:42:34;;;;;;;3.80;3.40;;;20.20;99.90;;;;;;5016234;28;20470;-61
2022/06/11 06:45:05;;;;;;;3.13;2.63;;;20.20;99.90;;;;;;5016046;28;20460;-62
2022/06/11 06:47:32;;;;;;;4.50;3.27;;;20.40;99.90;;;;;;5015439;28;20466;-61
2022/06/11 06:49:59;;;;;;;4.23;3.83;;;20.50;1.00;;;;;;5016669;28;20553;-61
2022/06/11 06:52:26;;;;;;;4.10;3.40;;;20.70;99.90;;;;;;5015646;28;20471;-62
2022/06/11 06:54:57;;;;;;;4.00;3.57;;;20.60;99.90;;;;;;5015504;28;20773;-62
2022/06/11 06:57:24;;;;;;;3.50;3.20;;;20.70;99.90;;;;;;5015980;28;20898;-62
2022/06/11 06:59:56;;;;;;;7.03;3.77;;;20.90;99.90;;;;;;5016349;28;20772;-61
2022/06/11 07:02:26;;;;;;;3.57;3.10;;;21.00;99.90;;;;;;5016980;28;20468;-61
2022/06/11 07:04:53;;;;;;;6.23;3.70;;;21.10;99.90;;;;;;5017205;28;20464;-62
2022/06/11 07:07:22;;;;;;;5.20;3.90;;;20.90;99.90;;;;;;5015805;28;20460;-61
2022/06/11 07:09:54;;;;;;;3.60;3.30;;;20.80;99.90;;;;;;5016752;28;20495;-61
2022/06/11 07:12:21;;;;;;;6.63;4.10;;;20.60;99.90;;;;;;5015531;28;20916;-62
2022/06/11 07:14:48;;;;;;;4.40;3.97;;;20.80;99.90;;;;;;5015218;28;20909;-62
2022/06/11 07:17:18;;;;;;;4.67;3.33;;;20.80;99.90;;;;;;5015041;28;20475;-62
2022/06/11 07:19:52;;;;;;;6.20;3.70;;;20.80;99.90;;;;;;5014868;28;20435;-61
2022/06/11 07:22:21;;;;;;;4.43;3.60;;;20.90;99.90;;;;;;5014180;28;20460;-62
2022/06/11 07:24:51;;;;;;;4.13;3.73;;;20.70;99.90;;;;;;5016341;28;20525;-62
2022/06/11 07:27:23;;;;;;;4.97;3.50;;;21.00;99.90;;;;;;5016704;28;20460;-61
2022/06/11 07:29:57;;;;;;;6.40;4.70;;;21.20;99.90;;;;;;5014697;28;20495;-62
2022/06/11 07:32:35;;;;;;;4.37;3.40;;;21.30;99.90;;;;;;5016327;28;20463;-62
2022/06/11 07:35:03;;;;;;;4.20;3.50;;;21.60;99.90;;;;;;5015118;28;20593;-62
2022/06/11 07:37:32;;;;;;;6.40;3.70;;;21.80;99.90;;;;;;5015705;28;20438;-61
2022/06/11 07:40:00;;;;;;;5.63;3.57;;;21.80;99.90;;;;;;5015256;28;20460;-62
2022/06/11 07:42:28;;;;;;;5.80;4.13;;;21.60;99.90;;;;;;5016256;28;20475;-62
2022/06/11 07:44:55;;;;;;;6.03;4.33;;;21.60;99.90;;;;;;5016519;28;20464;-62
2022/06/11 07:50:11;;;;;;;4.10;3.73;;;22.50;99.90;;;;;;5007419;28;20450;-63
2022/06/11 07:52:38;;;;;;;4.43;3.80;;;23.50;99.90;;;;;;5016152;28;20463;-63
2022/06/11 07:55:07;;;;;;;5.27;4.00;;;23.90;99.90;;;;;;5016878;28;20464;-62
2022/06/11 07:57:34;;;;;;;6.90;3.83;;;23.50;99.90;;;;;;5017191;28;20464;-65
2022/06/11 08:00:03;;;;;;;6.57;4.27;;;23.50;99.90;;;;;;5020011;28;20467;-62
2022/06/11 08:02:31;;;;;;;5.20;4.20;;;23.20;99.90;;;;;;5020280;28;20562;-62
2022/06/11 08:04:58;;;;;;;5.13;4.63;;;23.20;99.90;;;;;;5020212;28;20537;-62
2022/06/11 08:07:29;;;;;;;4.50;4.10;;;22.50;99.90;;;;;;5019674;28;20881;-62
2022/06/11 08:09:57;;;;;;;6.73;4.77;;;22.40;99.90;;;;;;5019798;28;20492;-62
2022/06/11 08:12:26;;;;;;;6.23;4.67;;;22.40;99.90;;;;;;5019659;28;20558;-61
2022/06/11 08:14:57;;;;;;;6.03;4.90;;;22.60;99.90;;;;;;5020179;28;20464;-61
2022/06/11 08:17:24;;;;;;;6.73;5.33;;;22.60;99.90;;;;;;5020166;28;20464;-62
2022/06/11 08:19:52;;;;;;;5.53;5.00;;;22.60;99.90;;;;;;5019615;28;20460;-61
2022/06/11 08:22:22;;;;;;;5.63;5.13;;;23.00;99.90;;;;;;5019099;28;20467;-62
2022/06/11 08:24:51;;;;;;;6.90;4.53;;;23.30;99.90;;;;;;5010347;28;20558;-62
2022/06/11 08:27:18;;;;;;;4.87;4.20;;;23.20;99.90;;;;;;5018379;28;20460;-62
2022/06/11 08:29:46;;;;;;;4.77;4.13;;;22.90;99.90;;;;;;5017697;28;20492;-62
2022/06/11 08:32:16;;;;;;;8.60;6.00;;;22.60;99.90;;;;;;5014571;28;20463;-62
2022/06/11 08:34:47;;;;;;;5.63;5.13;;;23.00;99.90;;;;;;5017493;28;20933;-62
2022/06/11 08:37:17;;;;;;;6.20;5.50;;;23.10;99.90;;;;;;5015756;28;20922;-63
2022/06/11 08:39:44;;;;;;;5.00;4.60;;;23.20;99.90;;;;;;5017389;28;20472;-63
2022/06/11 08:42:38;;;;;;;6.57;5.53;;;23.40;99.90;;;;;;5018247;28;20900;-62
2022/06/11 08:45:14;;;;;;;7.33;5.53;;;23.50;99.90;;;;;;5019360;28;20455;-62
2022/06/11 08:47:46;;;;;;;6.30;5.80;;;23.20;99.90;;;;;;5018024;28;20507;-63
2022/06/11 08:50:17;;;;;;;6.70;4.57;;;23.70;99.90;;;;;;5018461;28;21001;-63
2022/06/11 08:52:46;;;;;;;5.00;4.60;;;24.80;99.90;;;;;;5019287;28;20443;-62
2022/06/11 08:55:14;;;;;;;5.40;4.90;;;24.70;99.90;;;;;;5019393;28;20468;-62
2022/06/11 08:58:00;;;;;;;5.37;4.77;;;24.60;99.90;;;;;;5018838;28;20468;-62
2022/06/11 09:00:35;;;;;;;5.20;4.70;;;24.40;99.90;;;;;;5019044;28;20468;-62
2022/06/11 09:03:31;;;;;;;5.33;4.93;;;23.90;99.90;;;;;;5019289;28;20956;-62
2022/06/11 09:06:21;;;;;;;5.50;5.10;;;23.80;99.90;;;;;;5018964;28;20468;-62
2022/06/11 09:09:02;;;;;;;5.30;4.80;;;23.20;99.90;;;;;;5019029;28;20897;-62
2022/06/11 09:11:53;;;;;;;5.77;5.27;;;23.00;99.90;;;;;;5019323;28;20498;-62
2022/06/11 09:14:41;;;;;;;5.60;5.20;;;22.40;99.90;;;;;;5018786;28;20471;-62
2022/06/11 09:17:49;;;;;;;7.03;5.70;;;21.90;99.90;;;;;;5017091;28;20531;-63
2022/06/11 09:20:29;;;;;;;5.97;4.53;;;22.10;99.90;;;;;;4993514;28;20796;-64
2022/06/11 09:23:29;;;;;;;4.97;4.57;;;23.40;99.90;;;;;;5010353;28;20487;-63
2022/06/11 09:26:09;;;;;;;6.93;4.50;;;24.70;99.90;;;;;;5018613;28;21007;-64
2022/06/11 09:28:41;;;;;;;5.30;4.80;;;25.90;99.90;;;;;;5017312;28;20463;-64
2022/06/11 09:31:23;;;;;;;5.40;5.00;;;26.40;99.90;;;;;;5013495;28;20496;-62
2022/06/11 09:33:58;;;;;;;5.77;4.50;;;26.40;99.90;;;;;;5009676;28;20483;-62
2022/06/11 09:36:29;;;;;;;5.93;4.63;;;25.60;99.90;;;;;;5015903;28;20819;-62
2022/06/11 09:39:08;;;;;;;5.00;4.57;;;25.00;99.90;;;;;;5016013;28;20463;-63
2022/06/11 09:41:46;;;;;;;4.13;3.70;;;24.50;99.90;;;;;;5017963;28;20460;-62
2022/06/11 09:44:34;;;;;;;4.63;4.23;;;24.10;99.90;;;;;;5016290;28;20466;-62
2022/06/11 09:47:18;;;;;;;4.47;3.70;;;24.50;99.90;;;;;;5015690;28;20468;-63
2022/06/11 09:49:56;;;;;;;5.20;4.70;;;24.80;99.90;;;;;;5014667;28;20466;-62
2022/06/11 09:52:30;;;;;;;6.53;3.87;;;24.50;99.90;;;;;;5013177;28;20470;-63
2022/06/11 09:55:05;;;;;;;4.93;4.30;;;24.50;99.90;;;;;;5015389;28;20926;-62
2022/06/11 09:57:47;;;;;;;4.97;3.63;;;25.10;99.90;;;;;;5015811;28;20478;-62
2022/06/11 10:00:29;;;;;;;5.63;3.43;;;24.90;99.90;;;;;;5015023;28;20460;-63
2022/06/11 10:03:11;;;;;;;3.80;3.40;;;25.20;99.90;;;;;;5016610;28;20896;-62
2022/06/11 10:05:48;;;;;;;4.70;3.97;;;25.80;99.90;;;;;;5013110;28;20901;-63
2022/06/11 10:08:21;;;;;;;3.63;2.93;;;26.50;99.90;;;;;;5013932;28;20876;-62
2022/06/11 10:10:50;;;;;;;5.50;4.20;;;27.20;99.90;;;;;;5016132;28;20944;-63
2022/06/11 10:13:30;;;;;;;4.00;3.57;;;27.00;99.90;;;;;;5014238;28;20466;-62
2022/06/11 10:16:01;;;;;;;5.23;4.83;;;27.40;99.90;;;;;;5013630;28;20482;-62
2022/06/11 10:18:33;;;;;;;7.00;5.17;;;27.10;99.90;;;;;;5016293;28;20474;-62
2022/06/11 10:21:08;;;;;;;4.80;4.40;;;26.70;99.90;;;;;;5014144;28;20465;-62
2022/06/11 10:23:41;;;;;;;3.90;3.60;;;27.00;99.90;;;;;;5013236;28;20455;-62
2022/06/11 10:26:15;;;;;;;4.10;3.70;;;27.30;99.90;;;;;;5015894;28;20464;-63
2022/06/11 10:28:49;;;;;;;4.43;4.00;;;27.10;99.90;;;;;;5014475;28;20462;-62
2022/06/11 10:31:21;;;;;;;5.20;4.70;;;27.40;99.90;;;;;;5013931;28;20484;-63
2022/06/11 10:33:56;;;;;;;6.50;4.50;;;28.10;99.90;;;;;;5015999;28;20778;-63
2022/06/11 10:36:34;;;;;;;4.03;3.73;;;29.10;99.90;;;;;;5013653;28;20495;-63
2022/06/11 10:39:10;;;;;;;4.40;3.57;;;29.50;99.90;;;;;;5014326;28;20498;-62
2022/06/11 10:41:47;;;;;;;4.77;4.03;;;29.40;99.90;;;;;;5013457;28;20460;-63
2022/06/11 10:44:25;;;;;;;4.40;4.03;;;28.60;99.90;;;;;;5015684;28;20456;-62
2022/06/11 10:46:53;;;;;;;4.27;3.87;;;28.40;99.90;;;;;;5015265;28;20467;-62
2022/06/11 10:49:23;;;;;;;3.00;2.80;;;27.70;99.90;;;;;;5016372;28;20464;-63
2022/06/11 10:51:58;;;;;;;3.87;3.57;;;28.70;99.90;;;;;;5016662;28;20586;-62
2022/06/11 10:54:26;;;;;;;3.17;2.87;;;29.40;99.90;;;;;;5017781;28;20546;-63
2022/06/11 10:57:09;;;;;;;3.33;3.03;;;28.70;99.90;;;;;;5016516;28;20456;-62
2022/06/11 10:59:44;;;;;;;4.27;2.90;;;29.00;99.90;;;;;;5016183;28;20908;-63
2022/06/11 11:02:22;;;;;;;5.80;2.90;;;29.20;99.90;;;;;;5016725;28;20463;-63
2022/06/11 11:05:01;;;;;;;4.40;2.70;;;30.00;99.90;;;;;;5017315;28;20731;-62
2022/06/11 11:07:42;;;;;;;4.23;2.90;;;28.90;99.90;;;;;;5016220;28;20546;-63
2022/06/11 11:10:21;;;;;;;5.00;3.67;;;29.30;99.90;;;;;;5010519;28;20595;-62
2022/06/11 11:12:50;;;;;;;3.53;3.27;;;28.70;99.90;;;;;;5011270;28;20468;-61
2022/06/11 11:15:25;;;;;;;3.60;3.30;;;28.40;99.90;;;;;;5017559;28;20704;-63
2022/06/11 11:17:55;;;;;;;3.83;3.03;;;28.20;99.90;;;;;;5016296;28;20881;-64
2022/06/11 11:20:34;;;;;;;4.30;3.50;;;28.50;99.90;;;;;;5016443;28;20933;-62
2022/06/11 11:23:12;;;;;;;3.67;3.17;;;28.20;99.90;;;;;;5007550;28;20471;-62
2022/06/11 11:25:43;;;;;;;3.43;3.13;;;29.00;99.90;;;;;;5015091;28;20438;-62
2022/06/11 11:28:20;;;;;;;3.93;3.10;;;29.50;99.90;;;;;;5015015;28;20478;-61
2022/06/11 11:30:57;;;;;;;3.10;2.80;;;28.70;99.90;;;;;;5016486;28;20498;-63
2022/06/11 11:33:27;;;;;;;4.47;3.60;;;28.00;99.90;;;;;;5018505;28;20554;-62
2022/06/11 11:36:22;;;;;;;4.33;3.53;;;28.10;99.90;;;;;;5019377;28;20962;-61
2022/06/11 11:39:18;;;;;;;3.07;2.87;;;28.20;99.90;;;;;;5018479;28;20499;-62
2022/06/11 11:42:02;;;;;;;4.20;3.60;;;27.20;99.90;;;;;;5019633;28;20455;-62
2022/06/11 11:44:36;;;;;;;4.30;3.90;;;27.20;99.90;;;;;;5020064;28;20506;-63
2022/06/11 11:47:10;;;;;;;4.57;4.27;;;26.50;99.90;;;;;;5020545;28;20916;-63
2022/06/11 11:49:39;;;;;;;6.40;4.47;;;26.50;99.90;;;;;;5019576;28;20566;-62
2022/06/11 11:52:16;;;;;;;5.53;4.57;;;27.40;99.90;;;;;;5020067;28;20499;-62
2022/06/11 11:54:53;;;;;;;4.47;4.07;;;28.20;99.90;;;;;;5018074;28;20442;-62
2022/06/11 11:57:23;;;;;;;3.93;3.63;;;28.50;99.90;;;;;;5020662;28;20752;-61
2022/06/11 11:59:56;;;;;;;4.47;4.03;;;28.90;99.90;;;;;;5018447;28;20506;-61
2022/06/11 12:02:30;;;;;;;4.03;3.70;;;28.40;99.90;;;;;;5018184;28;20881;-62
2022/06/11 12:05:00;;;;;;;4.10;3.70;;;28.40;99.90;;;;;;5019620;28;20460;-62
2022/06/11 12:07:35;;;;;;;4.77;4.40;;;28.40;99.90;;;;;;5019320;28;20484;-62
2022/06/11 12:10:23;;;;;;;5.97;3.93;;;28.10;99.90;;;;;;5017547;28;20459;-61
2022/06/11 12:12:53;;;;;;;5.23;4.40;;;27.00;99.90;;;;;;5016809;28;20487;-62
2022/06/11 12:15:28;;;;;;;5.33;4.23;;;27.00;99.90;;;;;;5018293;28;20464;-62
2022/06/11 12:18:00;;;;;;;7.03;4.40;;;27.90;99.90;;;;;;5003167;28;20542;-62
2022/06/11 12:20:40;;;;;;;4.30;4.00;;;28.50;99.90;;;;;;5015548;28;20452;-62
2022/06/11 12:23:22;;;;;;;6.50;4.90;;;27.70;99.90;;;;;;5018345;28;20456;-62
2022/06/11 12:25:57;;;;;;;5.07;4.67;;;28.20;99.90;;;;;;5016827;28;20815;-63
2022/06/11 12:28:29;;;;;;;5.60;5.10;;;29.60;99.90;;;;;;5016098;28;20918;-61
2022/06/11 12:30:58;;;;;;;4.33;3.93;;;29.00;99.90;;;;;;5012803;28;20495;-62
2022/06/11 12:33:28;;;;;;;4.63;4.17;;;27.50;99.90;;;;;;5017352;28;20471;-62
2022/06/11 12:36:03;;;;;;;5.87;4.50;;;28.20;99.90;;;;;;5017558;28;20483;-61
2022/06/11 12:38:41;;;;;;;5.10;4.60;;;28.20;99.90;;;;;;5018133;28;20467;-62
2022/06/11 12:41:29;;;;;;;7.03;4.37;;;27.70;99.90;;;;;;5015896;28;20455;-61
2022/06/11 12:44:14;;;;;;;5.03;4.53;;;26.60;99.90;;;;;;5016707;28;20824;-62
2022/06/11 12:46:50;;;;;;;5.73;5.20;;;26.00;99.90;;;;;;5016274;28;20827;-61
2022/06/11 12:49:26;;;;;;;5.63;4.47;;;26.10;99.90;;;;;;5019565;28;20463;-61
2022/06/11 12:52:07;;;;;;;6.10;5.23;;;26.40;99.90;;;;;;5017110;28;20502;-60
2022/06/11 12:54:52;;;;;;;5.90;5.40;;;26.10;99.90;;;;;;5018381;28;20468;-61
2022/06/11 12:57:37;;;;;;;7.60;5.50;;;26.00;99.90;;;;;;5018224;28;20472;-61
2022/06/11 13:00:23;;;;;;;6.20;5.30;;;25.70;99.90;;;;;;5018671;28;20889;-62
2022/06/11 13:03:00;;;;;;;6.87;5.50;;;26.00;99.90;;;;;;5017269;28;20903;-62
2022/06/11 13:05:44;;;;;;;6.43;5.13;;;27.00;99.90;;;;;;5017726;28;20476;-61
2022/06/11 13:08:31;;;;;;;6.30;4.40;;;26.00;99.90;;;;;;5018491;28;20470;-61
2022/06/11 13:11:10;;;;;;;5.80;5.30;;;25.70;99.90;;;;;;5019050;28;20495;-61
2022/06/11 13:14:03;;;;;;;7.33;4.40;;;25.60;99.90;;;;;;5017909;28;20489;-61
2022/06/11 13:16:39;;;;;;;5.70;4.50;;;25.50;99.90;;;;;;5018924;28;20468;-62
2022/06/11 13:19:36;;;;;;;5.33;4.20;;;26.30;99.90;;;;;;5018526;28;20468;-62
2022/06/11 13:22:13;;;;;;;5.93;3.80;;;27.60;99.90;;;;;;5016280;28;20504;-61
2022/06/11 13:24:47;;;;;;;4.37;3.97;;;27.60;99.90;;;;;;5018723;28;20525;-61